Time;durP1;ratioP1;P1;durP2;ratioP2;P2;SDS_P1;SDS_P2;PMS_P1;PMS_P2;Temp;Humidity;BMP_temperature;BMP_pressure;BME280_temperature;BME280_humidity;BME280_pressure;Samples;Min_cycle;Max_cycle;Signal;HPM_P1;HPM_P2
2024/01/18 00:01:55;;;;;;;3.88;2.63;;;2.20;99.90;;;;;;5041446;28;20330;-46
2024/01/18 00:04:23;;;;;;;4.22;3.20;;;2.20;99.90;;;;;;5040899;28;20182;-47
2024/01/18 00:06:52;;;;;;;3.55;2.80;;;2.20;99.90;;;;;;5035048;28;20696;-45
2024/01/18 00:09:22;;;;;;;4.05;2.30;;;2.20;99.90;;;;;;5045641;28;20197;-45
2024/01/18 00:11:50;;;;;;;4.97;3.25;;;2.20;99.90;;;;;;5036401;28;20324;-44
2024/01/18 00:14:19;;;;;;;3.10;2.80;;;2.20;99.90;;;;;;5044345;28;20221;-49
2024/01/18 00:16:48;;;;;;;2.88;2.33;;;2.20;99.90;;;;;;5037805;28;20218;-46
2024/01/18 00:19:16;;;;;;;4.35;3.20;;;2.20;99.90;;;;;;5037762;28;20251;-46
2024/01/18 00:21:44;;;;;;;5.57;2.85;;;2.20;99.90;;;;;;5043674;28;20634;-45
2024/01/18 00:24:12;;;;;;;3.45;2.63;;;2.20;99.90;;;;;;5022327;28;20231;-45
2024/01/18 00:26:41;;;;;;;5.85;2.97;;;2.20;99.90;;;;;;5037288;28;20259;-47
2024/01/18 00:29:09;;;;;;;3.58;2.85;;;2.20;99.90;;;;;;5047691;28;20480;-47
2024/01/18 00:31:37;;;;;;;3.75;2.50;;;2.20;99.90;;;;;;5039621;28;20640;-47
2024/01/18 00:34:06;;;;;;;4.40;3.58;;;2.20;99.90;;;;;;5050731;28;20213;-47
2024/01/18 00:36:34;;;;;;;4.32;3.00;;;2.20;99.90;;;;;;5043155;28;20601;-45
2024/01/18 00:39:08;;;;;;;3.55;2.63;;;2.20;99.90;;;;;;5045272;28;20617;-44
2024/01/18 00:41:37;;;;;;;4.82;3.00;;;2.20;99.90;;;;;;5045486;28;20244;-44
2024/01/18 00:44:05;;;;;;;3.60;2.83;;;2.20;99.90;;;;;;5051521;28;20203;-47
2024/01/18 00:46:33;;;;;;;6.43;3.47;;;2.20;99.90;;;;;;5044194;28;20207;-47
2024/01/18 00:49:01;;;;;;;4.30;3.20;;;2.20;99.90;;;;;;5027167;28;20238;-46
2024/01/18 00:51:31;;;;;;;3.38;2.78;;;2.20;99.90;;;;;;5047503;28;20390;-45
2024/01/18 00:53:59;;;;;;;4.72;3.00;;;2.20;99.90;;;;;;5040816;28;20287;-48
2024/01/18 00:56:27;;;;;;;3.05;2.35;;;2.20;99.90;;;;;;5047641;28;20189;-47
2024/01/18 00:58:55;;;;;;;3.00;2.45;;;2.20;99.90;;;;;;5048454;28;20197;-46
2024/01/18 01:01:23;;;;;;;4.82;3.00;;;2.20;99.90;;;;;;5040908;28;20619;-48
2024/01/18 01:03:51;;;;;;;4.05;2.70;;;2.20;99.90;;;;;;5045172;28;20499;-47
2024/01/18 01:06:19;;;;;;;4.32;2.60;;;2.20;99.90;;;;;;5048711;28;20197;-46
2024/01/18 01:08:49;;;;;;;3.53;2.75;;;2.20;99.90;;;;;;5041074;28;20711;-46
2024/01/18 01:11:18;;;;;;;3.10;2.28;;;2.20;99.90;;;;;;5048392;28;20687;-46
2024/01/18 01:13:46;;;;;;;3.97;2.55;;;2.20;99.90;;;;;;5047787;28;20228;-47
2024/01/18 01:16:14;;;;;;;5.63;3.28;;;2.20;99.90;;;;;;5049574;28;20236;-46
2024/01/18 01:18:42;;;;;;;4.05;2.70;;;2.20;99.90;;;;;;5048760;28;20308;-45
2024/01/18 01:21:10;;;;;;;4.00;2.85;;;2.20;99.90;;;;;;5045415;28;20725;-45
2024/01/18 01:23:42;;;;;;;4.57;3.20;;;2.20;99.90;;;;;;5046996;28;20583;-47
2024/01/18 01:26:11;;;;;;;7.10;3.92;;;2.20;99.90;;;;;;5041346;28;20725;-47
2024/01/18 01:28:39;;;;;;;4.40;3.40;;;2.20;99.90;;;;;;5050845;28;20277;-45
2024/01/18 01:31:08;;;;;;;4.82;3.00;;;2.20;99.90;;;;;;5049334;28;20240;-45
2024/01/18 01:33:36;;;;;;;4.50;2.92;;;2.20;99.90;;;;;;5043380;28;20698;-46
2024/01/18 01:36:06;;;;;;;3.95;3.30;;;2.20;99.90;;;;;;5045239;28;20304;-46
2024/01/18 01:38:34;;;;;;;4.25;2.72;;;2.20;99.90;;;;;;5046273;28;20611;-47
2024/01/18 01:41:03;;;;;;;4.68;3.05;;;2.20;99.90;;;;;;5043250;28;20229;-46
2024/01/18 01:43:32;;;;;;;4.78;3.13;;;2.20;99.90;;;;;;5048063;28;20622;-45
2024/01/18 01:46:00;;;;;;;3.28;2.97;;;2.20;99.90;;;;;;5039032;28;20552;-47
2024/01/18 01:48:29;;;;;;;4.18;2.80;;;2.20;99.90;;;;;;5045909;28;20283;-47
2024/01/18 01:50:57;;;;;;;4.07;3.20;;;2.20;99.90;;;;;;5044007;28;20271;-44
2024/01/18 01:53:28;;;;;;;4.70;3.50;;;2.20;99.90;;;;;;5049324;28;20877;-47
2024/01/18 01:55:56;;;;;;;3.80;3.20;;;2.20;99.90;;;;;;5044598;28;20216;-44
2024/01/18 01:58:24;;;;;;;4.93;2.90;;;2.20;99.90;;;;;;5043037;28;20682;-47
2024/01/18 02:00:54;;;;;;;4.43;3.25;;;2.20;99.90;;;;;;5044934;28;20214;-45
2024/01/18 02:03:22;;;;;;;3.85;3.25;;;2.20;99.90;;;;;;5027697;28;20215;-45
2024/01/18 02:05:50;;;;;;;4.47;3.00;;;2.20;99.90;;;;;;5044174;28;20193;-47
2024/01/18 02:08:19;;;;;;;5.65;3.30;;;2.20;99.90;;;;;;5046519;28;20216;-45
2024/01/18 02:10:47;;;;;;;4.82;2.92;;;2.20;99.90;;;;;;5044736;28;20612;-44
2024/01/18 02:13:17;;;;;;;3.90;2.90;;;2.20;99.90;;;;;;5042141;28;20216;-45
2024/01/18 02:15:45;;;;;;;3.53;2.80;;;2.20;99.90;;;;;;5039193;28;20221;-45
2024/01/18 02:18:15;;;;;;;4.15;2.83;;;2.20;99.90;;;;;;5044919;28;20250;-44
2024/01/18 02:20:43;;;;;;;4.00;3.05;;;2.20;99.90;;;;;;5035863;28;20247;-45
2024/01/18 02:23:13;;;;;;;4.35;3.15;;;2.20;99.90;;;;;;5044052;28;20274;-45
2024/01/18 02:25:43;;;;;;;4.88;3.03;;;2.20;99.90;;;;;;5043960;28;20185;-47
2024/01/18 02:28:12;;;;;;;5.13;2.85;;;2.20;99.90;;;;;;5049430;28;20229;-49
2024/01/18 02:30:40;;;;;;;4.35;3.20;;;2.20;99.90;;;;;;5040683;28;20609;-44
2024/01/18 02:33:08;;;;;;;6.13;3.17;;;2.20;99.90;;;;;;5042335;28;20241;-45
2024/01/18 02:35:37;;;;;;;3.00;2.70;;;2.20;99.90;;;;;;5047749;28;20204;-44
2024/01/18 02:38:06;;;;;;;3.70;2.90;;;2.20;99.90;;;;;;5049810;28;20717;-46
2024/01/18 02:40:34;;;;;;;5.00;3.10;;;2.20;99.90;;;;;;5030961;28;20193;-46
2024/01/18 02:43:04;;;;;;;4.88;2.90;;;2.20;99.90;;;;;;5041440;28;20221;-45
2024/01/18 02:45:32;;;;;;;4.20;2.90;;;2.20;99.90;;;;;;5045021;28;20744;-45
2024/01/18 02:48:00;;;;;;;3.67;2.45;;;2.20;99.90;;;;;;5042020;28;20217;-44
2024/01/18 02:50:31;;;;;;;4.95;3.50;;;2.20;99.90;;;;;;5044256;28;20666;-49
2024/01/18 02:52:59;;;;;;;4.00;2.75;;;2.20;99.90;;;;;;5042785;28;20221;-45
2024/01/18 02:55:27;;;;;;;4.82;2.80;;;2.20;99.90;;;;;;5043915;28;20220;-45
2024/01/18 02:57:56;;;;;;;4.55;2.67;;;2.20;99.90;;;;;;5043439;28;20213;-46
2024/01/18 03:00:25;;;;;;;4.13;3.00;;;2.20;99.90;;;;;;5042653;28;20188;-46
2024/01/18 03:02:53;;;;;;;4.65;3.38;;;2.20;99.90;;;;;;5043217;28;20225;-48
2024/01/18 03:05:22;;;;;;;3.95;3.33;;;2.20;99.90;;;;;;5046442;28;20238;-45
2024/01/18 03:07:50;;;;;;;4.40;3.30;;;2.20;99.90;;;;;;5040015;28;20225;-49
2024/01/18 03:10:18;;;;;;;3.88;3.20;;;2.20;99.90;;;;;;5045707;28;20251;-44
2024/01/18 03:12:46;;;;;;;5.07;3.58;;;2.20;99.90;;;;;;5043731;28;20664;-45
2024/01/18 03:15:14;;;;;;;4.00;3.00;;;2.20;99.90;;;;;;5044615;28;20224;-46
2024/01/18 03:17:44;;;;;;;4.25;3.67;;;2.20;99.90;;;;;;5043265;28;20289;-45
2024/01/18 03:20:12;;;;;;;3.53;2.72;;;2.20;99.90;;;;;;5043685;28;20320;-44
2024/01/18 03:22:42;;;;;;;3.78;2.80;;;2.20;99.90;;;;;;5045940;28;20232;-43
2024/01/18 03:25:10;;;;;;;4.65;4.10;;;2.20;99.90;;;;;;5042788;28;20205;-46
2024/01/18 03:27:39;;;;;;;5.13;3.65;;;2.20;99.90;;;;;;5042462;28;20224;-46
2024/01/18 03:30:08;;;;;;;4.45;3.08;;;2.20;99.90;;;;;;5044046;28;20193;-45
2024/01/18 03:32:37;;;;;;;5.40;3.15;;;2.20;99.90;;;;;;5041981;28;20484;-45
2024/01/18 03:35:07;;;;;;;4.55;2.92;;;2.20;99.90;;;;;;5044606;28;20185;-45
2024/01/18 03:37:36;;;;;;;5.10;2.85;;;2.20;99.90;;;;;;5043240;28;20234;-45
2024/01/18 03:40:07;;;;;;;3.85;2.85;;;2.20;99.90;;;;;;5036669;28;20207;-45
2024/01/18 03:42:40;;;;;;;3.83;2.85;;;2.20;99.90;;;;;;5041906;28;20228;-49
2024/01/18 03:45:08;;;;;;;4.53;3.08;;;2.20;99.90;;;;;;5039628;28;20678;-43
2024/01/18 03:47:38;;;;;;;3.72;2.67;;;2.20;99.90;;;;;;5044090;28;20423;-45
2024/01/18 03:50:08;;;;;;;4.63;2.95;;;2.20;99.90;;;;;;5044839;28;20670;-46
2024/01/18 03:52:37;;;;;;;4.15;2.90;;;2.20;99.90;;;;;;5041797;28;20220;-45
2024/01/18 03:55:06;;;;;;;4.70;3.17;;;2.20;99.90;;;;;;5038915;28;20307;-45
2024/01/18 03:57:35;;;;;;;3.90;3.10;;;2.20;99.90;;;;;;5041454;28;20224;-46
2024/01/18 04:00:04;;;;;;;4.20;2.70;;;2.20;99.90;;;;;;5043345;28;20247;-45
2024/01/18 04:02:35;;;;;;;4.05;2.88;;;2.20;99.90;;;;;;5049749;28;20311;-45
2024/01/18 04:05:03;;;;;;;5.07;3.03;;;2.20;99.90;;;;;;5058425;28;20193;-47
2024/01/18 04:07:38;;;;;;;5.72;3.65;;;2.20;99.90;;;;;;5066513;28;20228;-47
2024/01/18 04:10:07;;;;;;;3.90;2.97;;;2.20;99.90;;;;;;5050158;28;20204;-44
2024/01/18 04:12:38;;;;;;;3.92;2.95;;;2.20;99.90;;;;;;5045208;28;20284;-45
2024/01/18 04:15:07;;;;;;;4.47;3.22;;;2.20;99.90;;;;;;5045270;28;20258;-44
2024/01/18 04:17:35;;;;;;;4.25;3.17;;;2.20;99.90;;;;;;5047850;28;20763;-44
2024/01/18 04:20:05;;;;;;;3.80;3.05;;;2.20;99.90;;;;;;5046686;28;20208;-46
2024/01/18 04:22:34;;;;;;;3.30;2.80;;;2.20;99.90;;;;;;5042596;28;20231;-45
2024/01/18 04:25:04;;;;;;;2.97;2.50;;;2.20;99.90;;;;;;5046363;28;20204;-45
2024/01/18 04:27:32;;;;;;;4.65;3.13;;;2.20;99.90;;;;;;5046058;28;20224;-46
2024/01/18 04:30:02;;;;;;;5.85;3.25;;;2.20;99.90;;;;;;5041453;28;20209;-44
2024/01/18 04:32:32;;;;;;;3.83;2.63;;;2.20;99.90;;;;;;5045348;28;20649;-44
2024/01/18 04:35:00;;;;;;;3.95;3.17;;;2.20;99.90;;;;;;5048467;28;20547;-43
2024/01/18 04:37:29;;;;;;;4.10;3.10;;;2.20;99.90;;;;;;5049562;28;20492;-44
2024/01/18 04:39:57;;;;;;;3.80;2.42;;;2.20;99.90;;;;;;5046364;28;20413;-44
2024/01/18 04:42:26;;;;;;;3.72;2.60;;;2.20;99.90;;;;;;5044880;28;20648;-45
2024/01/18 04:44:55;;;;;;;4.07;3.17;;;2.20;99.90;;;;;;5050010;28;20677;-47
2024/01/18 04:47:23;;;;;;;4.28;3.05;;;2.20;99.90;;;;;;5045535;28;20228;-44
2024/01/18 04:49:51;;;;;;;4.10;3.10;;;2.20;99.90;;;;;;5048739;28;20250;-43
2024/01/18 04:52:21;;;;;;;3.75;2.97;;;2.20;99.90;;;;;;5048278;28;20273;-44
2024/01/18 04:54:50;;;;;;;5.00;3.40;;;2.20;99.90;;;;;;5043001;28;20605;-44
2024/01/18 04:57:18;;;;;;;4.68;3.30;;;2.20;99.90;;;;;;5043277;28;20225;-43
2024/01/18 04:59:47;;;;;;;4.25;2.40;;;2.20;99.90;;;;;;5048560;28;20231;-44
2024/01/18 05:02:15;;;;;;;3.28;2.88;;;2.20;99.90;;;;;;5042813;28;20308;-45
2024/01/18 05:04:43;;;;;;;3.55;2.90;;;2.20;99.90;;;;;;5045398;28;21041;-44
2024/01/18 05:07:12;;;;;;;4.53;2.65;;;2.20;99.90;;;;;;5048231;28;20690;-45
2024/01/18 05:09:40;;;;;;;3.95;2.70;;;2.20;99.90;;;;;;5028243;28;20203;-44
2024/01/18 05:12:09;;;;;;;3.90;2.67;;;2.20;99.90;;;;;;5040514;28;20710;-44
2024/01/18 05:14:40;;;;;;;3.97;2.97;;;2.20;99.90;;;;;;5041133;28;20208;-44
2024/01/18 05:17:11;;;;;;;4.57;3.10;;;2.20;99.90;;;;;;5030611;28;20416;-44
2024/01/18 05:19:40;;;;;;;3.80;2.75;;;2.20;99.90;;;;;;5042733;28;20280;-44
2024/01/18 05:22:09;;;;;;;3.90;2.88;;;2.20;99.90;;;;;;5038507;28;20220;-44
2024/01/18 05:24:37;;;;;;;4.05;2.78;;;2.20;99.90;;;;;;5041028;28;20195;-44
2024/01/18 05:27:05;;;;;;;4.80;2.80;;;2.20;99.90;;;;;;5040181;28;20241;-44
2024/01/18 05:29:34;;;;;;;5.40;3.40;;;2.20;99.90;;;;;;5048800;28;20205;-44
2024/01/18 05:32:03;;;;;;;5.57;3.47;;;2.20;99.90;;;;;;5038040;28;20228;-44
2024/01/18 05:34:32;;;;;;;3.45;2.80;;;2.20;99.90;;;;;;5045311;28;20299;-45
2024/01/18 05:37:00;;;;;;;4.93;3.00;;;2.20;99.90;;;;;;5043072;28;20225;-44
2024/01/18 05:39:29;;;;;;;4.82;3.83;;;2.20;99.90;;;;;;5046642;28;20211;-44
2024/01/18 05:41:58;;;;;;;3.40;2.40;;;2.20;99.90;;;;;;5038423;28;20213;-44
2024/01/18 05:44:26;;;;;;;5.00;3.45;;;2.20;99.90;;;;;;5041586;28;20617;-45
2024/01/18 05:46:54;;;;;;;4.13;2.88;;;2.20;99.90;;;;;;5042205;28;20275;-45
2024/01/18 05:49:22;;;;;;;4.65;3.10;;;2.20;99.90;;;;;;5046982;28;20199;-44
2024/01/18 05:51:52;;;;;;;3.55;2.85;;;2.20;99.90;;;;;;5043523;28;20228;-45
2024/01/18 05:54:20;;;;;;;5.00;3.28;;;2.20;99.90;;;;;;5045230;28;20208;-45
2024/01/18 05:56:49;;;;;;;3.78;2.88;;;2.20;99.90;;;;;;5037803;28;20262;-45
2024/01/18 05:59:17;;;;;;;3.97;3.33;;;2.20;99.90;;;;;;5039388;28;20203;-45
2024/01/18 06:01:45;;;;;;;3.95;3.45;;;2.20;99.90;;;;;;5035983;28;20217;-45
2024/01/18 06:04:13;;;;;;;6.38;3.40;;;2.20;99.90;;;;;;5044436;28;20189;-45
2024/01/18 06:06:41;;;;;;;4.95;2.72;;;2.20;99.90;;;;;;5038616;28;20287;-45
2024/01/18 06:09:14;;;;;;;6.38;3.83;;;2.20;99.90;;;;;;5046138;28;20188;-45
2024/01/18 06:11:42;;;;;;;3.42;2.78;;;2.20;99.90;;;;;;5038580;28;20205;-45
2024/01/18 06:14:10;;;;;;;2.97;2.67;;;2.20;99.90;;;;;;5043595;28;20204;-45
2024/01/18 06:16:40;;;;;;;3.67;2.72;;;2.20;99.90;;;;;;5036146;28;20196;-44
2024/01/18 06:19:08;;;;;;;3.75;2.67;;;2.20;99.90;;;;;;5046582;28;20638;-45
2024/01/18 06:21:37;;;;;;;5.65;3.47;;;2.20;99.90;;;;;;5036581;28;20743;-45
2024/01/18 06:24:09;;;;;;;4.30;3.08;;;2.20;99.90;;;;;;5038753;28;20559;-45
2024/01/18 06:26:39;;;;;;;3.33;2.78;;;2.20;99.90;;;;;;5038232;28;20553;-45
2024/01/18 06:29:07;;;;;;;5.05;3.10;;;2.20;99.90;;;;;;5046946;28;20281;-45
2024/01/18 06:31:35;;;;;;;5.80;3.70;;;2.20;99.90;;;;;;5041595;28;20221;-46
2024/01/18 06:34:04;;;;;;;3.90;2.95;;;2.30;99.90;;;;;;5041770;28;20196;-45
2024/01/18 06:36:33;;;;;;;4.50;3.20;;;2.20;99.90;;;;;;5030082;28;20240;-45
2024/01/18 06:39:01;;;;;;;4.93;2.88;;;2.20;99.90;;;;;;5044543;28;20320;-44
2024/01/18 06:41:30;;;;;;;7.88;3.67;;;2.20;99.90;;;;;;5041376;28;20216;-45
2024/01/18 06:44:01;;;;;;;5.93;3.05;;;2.20;99.90;;;;;;5040614;28;20209;-46
2024/01/18 06:46:31;;;;;;;4.32;2.92;;;2.20;99.90;;;;;;5038184;28;20610;-44
2024/01/18 06:49:00;;;;;;;4.55;2.90;;;2.20;99.90;;;;;;5044073;28;20299;-45
2024/01/18 06:51:29;;;;;;;5.15;3.88;;;2.20;99.90;;;;;;5043642;28;20243;-45
2024/01/18 06:53:58;;;;;;;5.05;3.50;;;2.20;99.90;;;;;;5042444;28;20689;-45
2024/01/18 06:56:26;;;;;;;4.80;3.08;;;2.20;99.90;;;;;;5044090;28;20197;-45
2024/01/18 06:58:54;;;;;;;5.65;3.42;;;2.20;99.90;;;;;;5044261;28;20226;-45
2024/01/18 07:01:24;;;;;;;4.47;3.35;;;2.20;99.90;;;;;;5035022;28;20239;-45
2024/01/18 07:03:52;;;;;;;4.03;2.90;;;2.20;99.90;;;;;;5043968;28;20220;-45
2024/01/18 07:06:21;;;;;;;2.92;2.35;;;2.20;99.90;;;;;;5037010;28;20709;-45
2024/01/18 07:08:52;;;;;;;5.32;3.53;;;2.20;99.90;;;;;;5045589;28;20209;-45
2024/01/18 07:11:20;;;;;;;3.72;2.70;;;2.20;99.90;;;;;;5046075;28;20208;-45
2024/01/18 07:13:48;;;;;;;4.03;3.50;;;2.20;99.90;;;;;;5044923;28;20217;-45
2024/01/18 07:16:16;;;;;;;3.53;2.80;;;2.20;99.90;;;;;;5040707;28;20206;-45
2024/01/18 07:18:46;;;;;;;4.28;3.42;;;2.20;99.90;;;;;;5024785;28;20248;-45
2024/01/18 07:21:14;;;;;;;3.70;2.90;;;2.20;99.90;;;;;;5019655;28;20617;-45
2024/01/18 07:23:42;;;;;;;3.67;3.03;;;2.20;99.90;;;;;;5042715;28;20855;-45
2024/01/18 07:26:11;;;;;;;4.95;3.50;;;2.20;99.90;;;;;;5039972;28;20197;-43
2024/01/18 07:28:39;;;;;;;5.78;4.13;;;2.20;99.90;;;;;;5043941;28;20658;-45
2024/01/18 07:31:07;;;;;;;4.40;2.80;;;2.20;99.90;;;;;;5044479;28;20209;-45
2024/01/18 07:33:37;;;;;;;4.50;3.17;;;2.20;99.90;;;;;;5046104;28;20220;-45
2024/01/18 07:36:08;;;;;;;5.13;3.25;;;2.20;99.90;;;;;;5045460;28;20200;-45
2024/01/18 07:38:36;;;;;;;4.53;2.88;;;2.20;99.90;;;;;;5048084;28;20221;-45
2024/01/18 07:41:04;;;;;;;4.40;3.67;;;2.20;99.90;;;;;;5041315;28;20331;-45
2024/01/18 07:43:32;;;;;;;3.80;3.10;;;2.20;99.90;;;;;;5040023;28;20238;-44
2024/01/18 07:46:00;;;;;;;25.23;16.80;;;2.20;99.90;;;;;;5046572;28;20606;-44
2024/01/18 07:48:31;;;;;;;24.40;18.88;;;2.20;99.80;;;;;;5037849;28;20297;-43
2024/01/18 07:50:59;;;;;;;27.75;19.70;;;2.10;99.60;;;;;;5050191;28;20701;-43
2024/01/18 07:53:28;;;;;;;29.55;21.50;;;2.00;99.50;;;;;;5045530;28;20764;-44
2024/01/18 07:55:56;;;;;;;22.75;19.30;;;1.90;99.70;;;;;;5050416;28;20192;-45
2024/01/18 07:58:25;;;;;;;24.85;19.70;;;1.80;99.80;;;;;;5051152;28;20228;-44
2024/01/18 08:00:53;;;;;;;22.88;20.25;;;1.70;99.80;;;;;;5044860;28;20209;-44
2024/01/18 08:03:21;;;;;;;25.50;19.35;;;1.70;99.90;;;;;;5046121;28;20214;-43
2024/01/18 08:05:49;;;;;;;25.83;20.13;;;1.70;99.90;;;;;;5034748;28;20200;-45
2024/01/18 08:08:17;;;;;;;29.80;18.35;;;1.60;99.90;;;;;;5042561;28;20224;-45
2024/01/18 08:10:47;;;;;;;24.52;19.33;;;1.60;99.90;;;;;;5045563;28;20289;-45
2024/01/18 08:13:15;;;;;;;28.30;21.00;;;1.60;99.90;;;;;;5040207;28;20698;-44
2024/01/18 08:15:43;;;;;;;27.88;19.88;;;1.50;99.90;;;;;;5047782;28;20205;-44
2024/01/18 08:18:13;;;;;;;34.10;21.17;;;1.50;99.90;;;;;;5030443;28;20732;-45
2024/01/18 08:20:41;;;;;;;35.30;20.75;;;1.50;99.90;;;;;;5045705;28;20694;-45
2024/01/18 08:23:10;;;;;;;27.42;19.90;;;1.60;99.90;;;;;;5048325;28;20648;-43
2024/01/18 08:25:41;;;;;;;27.50;19.63;;;1.60;99.90;;;;;;5027038;28;20211;-45
2024/01/18 08:28:13;;;;;;;23.88;17.48;;;1.70;99.90;;;;;;5049643;28;20335;-45
2024/01/18 08:30:41;;;;;;;23.77;17.42;;;1.70;99.90;;;;;;5032590;28;20197;-43
2024/01/18 08:33:20;;;;;;;23.88;17.85;;;1.80;99.90;;;;;;5048005;28;20308;-45
2024/01/18 08:35:48;;;;;;;25.42;17.77;;;1.80;99.90;;;;;;5048968;28;20216;-46
2024/01/18 08:38:17;;;;;;;18.63;15.85;;;1.80;99.90;;;;;;5041006;28;20642;-46
2024/01/18 08:40:45;;;;;;;26.58;17.50;;;1.90;99.90;;;;;;5045410;28;20259;-47
2024/01/18 08:43:14;;;;;;;24.85;18.75;;;1.90;99.90;;;;;;5042977;28;20710;-47
2024/01/18 08:45:43;;;;;;;25.02;19.35;;;1.90;99.90;;;;;;5027045;28;20717;-46
2024/01/18 08:48:11;;;;;;;26.55;18.10;;;1.90;99.80;;;;;;5042960;28;20601;-48
2024/01/18 08:50:40;;;;;;;25.40;17.70;;;1.90;99.80;;;;;;5048791;28;20247;-45
2024/01/18 08:53:08;;;;;;;25.02;17.63;;;1.90;99.80;;;;;;5033187;28;20271;-45
2024/01/18 08:55:38;;;;;;;21.88;17.15;;;2.00;99.90;;;;;;5039845;28;20268;-45
2024/01/18 08:58:08;;;;;;;23.85;18.58;;;2.00;99.90;;;;;;5043419;28;20699;-45
2024/01/18 09:00:38;;;;;;;21.13;16.13;;;2.00;99.80;;;;;;5046266;28;20201;-51
2024/01/18 09:03:06;;;;;;;23.40;16.30;;;2.00;99.90;;;;;;5049315;28;20209;-44
2024/01/18 09:05:35;;;;;;;19.77;16.38;;;2.00;99.90;;;;;;5052163;28;20201;-43
2024/01/18 09:08:03;;;;;;;18.08;15.02;;;2.00;99.80;;;;;;5050559;28;20213;-43
2024/01/18 09:10:34;;;;;;;18.90;15.38;;;2.00;99.90;;;;;;5052619;28;20246;-43
2024/01/18 09:13:02;;;;;;;22.23;15.25;;;2.00;99.80;;;;;;5049277;28;20241;-44
2024/01/18 09:15:31;;;;;;;23.55;15.90;;;2.00;99.80;;;;;;5048594;28;20205;-43
2024/01/18 09:18:00;;;;;;;19.30;14.93;;;2.00;99.90;;;;;;5056689;28;20671;-44
2024/01/18 09:20:29;;;;;;;20.17;15.90;;;2.00;99.80;;;;;;5047203;28;20244;-43
2024/01/18 09:22:57;;;;;;;17.25;14.00;;;2.00;99.80;;;;;;5055539;28;20220;-42
2024/01/18 09:25:39;;;;;;;19.27;15.30;;;2.10;99.90;;;;;;5048638;28;20208;-44
2024/01/18 09:28:09;;;;;;;19.90;14.20;;;2.10;99.90;;;;;;5056083;28;20595;-44
2024/01/18 09:30:37;;;;;;;19.17;14.98;;;2.10;99.90;;;;;;5047195;28;20635;-44
2024/01/18 09:33:12;;;;;;;18.55;14.82;;;2.10;99.80;;;;;;5051688;28;20667;-43
2024/01/18 09:35:41;;;;;;;25.80;15.10;;;2.10;99.80;;;;;;5041523;28;20209;-44
2024/01/18 09:38:10;;;;;;;21.65;15.07;;;2.10;99.80;;;;;;5053821;28;20256;-43
2024/01/18 09:40:40;;;;;;;18.88;15.18;;;2.10;99.80;;;;;;5053708;28;20209;-43
2024/01/18 09:43:10;;;;;;;17.33;13.85;;;2.10;99.90;;;;;;5035681;28;20220;-43
2024/01/18 09:45:43;;;;;;;18.48;14.55;;;2.10;99.80;;;;;;5045600;28;20232;-43
2024/01/18 09:48:14;;;;;;;21.00;14.88;;;2.10;99.80;;;;;;5044023;28;20601;-43
2024/01/18 09:50:44;;;;;;;15.98;14.27;;;2.20;99.80;;;;;;5045279;28;20214;-43
2024/01/18 09:53:15;;;;;;;16.80;14.20;;;2.20;99.80;;;;;;5045625;28;20220;-43
2024/01/18 09:55:43;;;;;;;18.15;14.95;;;2.20;99.80;;;;;;5042441;28;20593;-43
2024/01/18 09:58:13;;;;;;;19.05;14.65;;;2.20;99.80;;;;;;5049851;28;20295;-43
2024/01/18 10:00:44;;;;;;;19.02;13.55;;;2.20;99.80;;;;;;5042347;28;20231;-43
2024/01/18 10:03:17;;;;;;;16.90;14.90;;;2.20;99.80;;;;;;5048141;28;20212;-43
2024/01/18 10:05:46;;;;;;;18.52;13.90;;;2.20;99.80;;;;;;5046391;28;20284;-43
2024/01/18 10:08:14;;;;;;;21.65;14.60;;;2.20;99.80;;;;;;5047978;28;20695;-43
2024/01/18 10:10:43;;;;;;;21.45;14.32;;;2.20;99.80;;;;;;5044451;28;20189;-43
2024/01/18 10:13:14;;;;;;;18.98;12.77;;;2.20;99.80;;;;;;5039300;28;20224;-43
2024/01/18 10:15:42;;;;;;;17.05;13.32;;;2.30;99.80;;;;;;5028782;28;20205;-45
2024/01/18 10:18:11;;;;;;;18.55;13.38;;;2.20;99.80;;;;;;5045065;28;20227;-44
2024/01/18 10:20:40;;;;;;;18.33;13.68;;;2.30;99.80;;;;;;5041489;28;20267;-45
2024/01/18 10:23:10;;;;;;;18.80;13.73;;;2.30;99.80;;;;;;5030624;28;20220;-43
2024/01/18 10:25:39;;;;;;;17.17;14.40;;;2.30;99.80;;;;;;5032162;28;20248;-44
2024/01/18 10:28:07;;;;;;;16.05;12.88;;;2.30;99.80;;;;;;5047267;28;20224;-43
2024/01/18 10:30:38;;;;;;;16.85;12.98;;;2.30;99.80;;;;;;5028213;28;20188;-43
2024/01/18 10:33:08;;;;;;;17.75;14.50;;;2.30;99.70;;;;;;5038495;28;20212;-43
2024/01/18 10:35:37;;;;;;;14.30;11.30;;;2.30;99.80;;;;;;5046567;28;20193;-43
2024/01/18 10:38:07;;;;;;;18.00;12.93;;;2.30;99.80;;;;;;5046600;28;20307;-43
2024/01/18 10:40:39;;;;;;;17.25;13.27;;;2.30;99.80;;;;;;5045414;28;20691;-43
2024/01/18 10:43:08;;;;;;;16.48;12.38;;;2.30;99.80;;;;;;5043656;28;20216;-44
2024/01/18 10:45:37;;;;;;;18.63;13.50;;;2.30;99.80;;;;;;5041286;28;20201;-43
2024/01/18 10:48:05;;;;;;;15.60;12.57;;;2.30;99.80;;;;;;5047513;28;20594;-44
2024/01/18 10:50:35;;;;;;;16.33;12.45;;;2.30;99.80;;;;;;5044841;28;20725;-44
2024/01/18 10:53:04;;;;;;;15.90;12.23;;;2.30;99.90;;;;;;5042744;28;20430;-43
2024/01/18 10:55:34;;;;;;;15.68;11.02;;;2.30;99.80;;;;;;5045915;28;20192;-43
2024/01/18 10:58:02;;;;;;;16.45;11.98;;;2.30;99.90;;;;;;5041190;28;20951;-43
2024/01/18 11:00:30;;;;;;;15.68;12.98;;;2.30;99.90;;;;;;5045021;28;20259;-42
2024/01/18 11:02:59;;;;;;;13.82;11.10;;;2.30;99.90;;;;;;5044992;28;20221;-43
2024/01/18 11:05:29;;;;;;;18.05;12.30;;;2.30;99.90;;;;;;5046253;28;20200;-44
2024/01/18 11:07:58;;;;;;;19.40;12.88;;;2.30;99.90;;;;;;5044578;28;20221;-44
2024/01/18 11:10:29;;;;;;;15.50;11.95;;;2.20;99.90;;;;;;5047594;28;20849;-44
2024/01/18 11:12:59;;;;;;;15.57;10.82;;;2.30;99.90;;;;;;5042411;28;20338;-43
2024/01/18 11:15:28;;;;;;;15.88;11.95;;;2.30;99.90;;;;;;5044181;28;20311;-43
2024/01/18 11:17:58;;;;;;;17.85;12.13;;;2.30;99.90;;;;;;5045365;28;20593;-43
2024/01/18 11:20:26;;;;;;;16.60;11.63;;;2.30;99.90;;;;;;5047504;28;20211;-44
2024/01/18 11:22:58;;;;;;;14.88;10.63;;;2.30;99.90;;;;;;5039501;28;20255;-43
2024/01/18 11:25:30;;;;;;;12.40;9.95;;;2.30;99.90;;;;;;5041112;28;20189;-43
2024/01/18 11:28:01;;;;;;;13.15;10.63;;;2.30;99.90;;;;;;5045648;28;20768;-44
2024/01/18 11:30:35;;;;;;;16.35;10.85;;;2.30;99.90;;;;;;5044140;28;20418;-44
2024/01/18 11:33:07;;;;;;;14.48;10.50;;;2.30;99.90;;;;;;5046211;28;20212;-44
2024/01/18 11:35:36;;;;;;;16.63;11.40;;;2.30;99.90;;;;;;5045980;28;20201;-44
2024/01/18 11:38:18;;;;;;;15.60;11.05;;;2.30;99.90;;;;;;5047431;28;20220;-43
2024/01/18 11:40:47;;;;;;;13.38;9.80;;;2.30;99.90;;;;;;5042877;28;20205;-44
2024/01/18 11:43:17;;;;;;;14.27;10.23;;;2.30;99.90;;;;;;5036349;28;20227;-43
2024/01/18 11:45:49;;;;;;;16.85;11.25;;;2.30;99.90;;;;;;5044959;28;20211;-43
2024/01/18 11:48:18;;;;;;;14.52;11.82;;;2.30;99.90;;;;;;5038531;28;20749;-43
2024/01/18 11:50:46;;;;;;;14.10;10.23;;;2.30;99.90;;;;;;5043258;28;20196;-44
2024/01/18 11:53:17;;;;;;;15.07;11.73;;;2.30;99.90;;;;;;5046387;28;20228;-43
2024/01/18 11:55:47;;;;;;;15.55;11.52;;;2.30;99.90;;;;;;5044103;28;20219;-45
2024/01/18 11:58:17;;;;;;;12.95;10.88;;;2.30;99.90;;;;;;5046182;28;20761;-44
2024/01/18 12:00:45;;;;;;;14.48;9.60;;;2.30;99.90;;;;;;5041691;28;20220;-43
2024/01/18 12:03:13;;;;;;;12.50;10.15;;;2.30;99.90;;;;;;5044879;28;20205;-43
2024/01/18 12:05:42;;;;;;;13.15;10.32;;;2.30;99.90;;;;;;5048041;28;20199;-45
2024/01/18 12:08:13;;;;;;;16.85;10.30;;;2.30;99.90;;;;;;5026266;28;20274;-44
2024/01/18 12:10:42;;;;;;;12.02;10.00;;;2.30;99.90;;;;;;5046052;28;20185;-44
2024/01/18 12:13:11;;;;;;;14.38;10.05;;;2.30;99.90;;;;;;5046516;28;20227;-44
2024/01/18 12:15:41;;;;;;;13.07;9.82;;;2.30;99.90;;;;;;5044449;28;20254;-43
2024/01/18 12:18:10;;;;;;;13.77;10.32;;;2.30;99.90;;;;;;5043367;28;20213;-44
2024/01/18 12:20:43;;;;;;;14.90;12.10;;;2.30;99.90;;;;;;5041951;28;20728;-43
2024/01/18 12:23:15;;;;;;;19.70;14.45;;;2.30;99.90;;;;;;5042380;28;20312;-43
2024/01/18 12:25:43;;;;;;;21.50;15.25;;;2.30;99.90;;;;;;5043589;28;20203;-43
2024/01/18 12:28:11;;;;;;;19.80;13.52;;;2.20;99.90;;;;;;5044836;28;20217;-43
2024/01/18 12:30:42;;;;;;;21.35;14.32;;;2.10;99.90;;;;;;5042139;28;20193;-43
2024/01/18 12:33:14;;;;;;;19.63;13.15;;;2.10;99.90;;;;;;5048825;28;20846;-43
2024/01/18 12:35:42;;;;;;;27.42;14.82;;;2.00;99.90;;;;;;5043851;28;20224;-44
2024/01/18 12:38:11;;;;;;;21.10;13.55;;;2.00;99.90;;;;;;5051144;28;20228;-45
2024/01/18 12:40:39;;;;;;;21.05;14.73;;;2.00;99.90;;;;;;5049158;28;20402;-45
2024/01/18 12:43:07;;;;;;;21.40;14.20;;;1.90;99.90;;;;;;5045008;28;20697;-46
2024/01/18 12:45:38;;;;;;;20.80;15.25;;;2.00;99.90;;;;;;5047664;28;20196;-46
2024/01/18 12:48:09;;;;;;;19.65;13.77;;;2.00;99.90;;;;;;5046082;28;20221;-46
2024/01/18 12:50:38;;;;;;;19.85;13.65;;;2.10;99.90;;;;;;5047802;28;20246;-46
2024/01/18 12:53:07;;;;;;;17.50;12.35;;;2.10;99.90;;;;;;5029589;28;20217;-46
2024/01/18 12:55:37;;;;;;;17.75;12.95;;;2.10;99.90;;;;;;5047440;28;20578;-45
2024/01/18 12:58:06;;;;;;;15.63;11.20;;;2.20;99.90;;;;;;5046970;28;20236;-47